| Date | Time | Temp. (oF) | Dew Point (oF) | Rel. Hum. (%) | Press. (in.) | Wind Dir. | Wind Speed (mph) | Hourly Rainfall (in.) |
|
|---|---|---|---|---|---|---|---|---|---|
| 1 | 06/28 | 00:00 | 70 | 69 | 100 | 29.86 | WSW | 2 | 0.00 |
| 2 | 06/27 | 23:00 | 71 | 71 | 100 | 29.86 | WNW | 0 | 0.00 |
| 3 | 06/27 | 22:00 | 71 | 71 | 100 | 29.86 | SW | 1 | 0.00 |
| 4 | 06/27 | 21:00 | 72 | 71 | 99 | 29.85 | SSW | 0 | 0.00 |
| 5 | 06/27 | 20:00 | 73 | 72 | 97 | 29.83 | WSW | 3 | 0.00 |
| 6 | 06/27 | 19:00 | 72 | 71 | 98 | 29.82 | ESE | 3 | 0.05 |
| 7 | 06/27 | 18:00 | 70 | 68 | 96 | 29.85 | SW | 1 | 0.92 |
| 8 | 06/27 | 17:00 | 86 | 67 | 55 | 29.79 | NE | 2 | 0.00 |
| 9 | 06/27 | 16:00 | 89 | 67 | 50 | 29.78 | ESE | 3 | 0.00 |
| 10 | 06/27 | 15:00 | 88 | 66 | 49 | 29.82 | WSW | 2 | 0.00 |
| 11 | 06/27 | 14:00 | 85 | 65 | 53 | 29.84 | S | 3 | 0.00 |
| 12 | 06/27 | 13:00 | 85 | 66 | 55 | 29.86 | NNW | 2 | 0.00 |
| 13 | 06/27 | 12:00 | 83 | 65 | 55 | 29.87 | W | 7 | 0.00 |
| 14 | 06/27 | 11:00 | 85 | 66 | 55 | 29.87 | NNW | 5 | 0.00 |
| 15 | 06/27 | 10:00 | 81 | 68 | 66 | 29.87 | W | 1 | 0.00 |
| 16 | 06/27 | 09:00 | 78 | 68 | 72 | 29.87 | E | 2 | 0.00 |
| 17 | 06/27 | 08:00 | 74 | 68 | 84 | 29.87 | E | 2 | 0.00 |
| 18 | 06/27 | 07:00 | 70 | 67 | 92 | 29.85 | S | 0 | 0.00 |
| 19 | 06/27 | 06:00 | 70 | 66 | 90 | 29.84 | SW | 0 | 0.00 |
| 20 | 06/27 | 05:00 | 71 | 66 | 87 | 29.83 | SW | 0 | 0.00 |
| 21 | 06/27 | 04:00 | 73 | 66 | 79 | 29.84 | WNW | 3 | 0.00 |
| 22 | 06/27 | 03:00 | 73 | 64 | 75 | 29.84 | SW | 3 | 0.00 |
| 23 | 06/27 | 02:00 | 76 | 65 | 70 | 29.84 | WSW | 2 | 0.00 |
| 24 | 06/27 | 01:00 | 73 | 69 | 88 | 29.86 | NNW | 5 | 0.00 |